Nearby METAR Reports

 

EBAW - Antwerp/Deurne, Belgium
Distance from station: ΝΝΑ 9km
Ενημερώθηκε: 20/06/2024 07:20
Αίθριος
Αίθριος
 Ανεμος από ΑΒΑ
Ανεμος: ΑΒΑ 7 km/h
Θερμοκρασία: 14°C
Σημείο Δρόσου: 11°C
Υγρασία: 82%
Βαρόμετρο: 1020 hPa
Περίληψη: Αίθριος
Visibility: greater than 10 km
2024/06/20 05:20 EBAW 200520Z 07004KT 040V100 CAVOK 14/11 Q1020 NOSIG
EHWO - Woensdrecht Rnla, Netherlands
Distance from station: ΒΒΔ 20km
Ενημερώθηκε: 20/06/2024 07:25
Συννεφιά
Συννεφιά
 Ανεμος από ΑΒΑ
Ανεμος: ΑΒΑ 11 km/h
Θερμοκρασία: 13°C
Σημείο Δρόσου: 11°C
Υγρασία: 88%
Βαρόμετρο: 1020 hPa
Clouds: Συννεφιά
Visibility: 10 km
Cloud details: Συννεφιά 5182 m
2024/06/20 05:25 EHWO 200525Z AUTO 07006KT 040V110 9999 OVC170 13/11 Q1020 BLU
 
EBBR - Brussels Nationa, Belgium
Distance from station: Ν 43km
Ενημερώθηκε: 20/06/2024 07:20
Αίθριος
Αίθριος
 Ανεμος από Α
Ανεμος: Α 6 km/h
Θερμοκρασία: 13°C
Σημείο Δρόσου: 11°C
Υγρασία: 88%
Βαρόμετρο: 1020 hPa
Περίληψη: Αίθριος
Visibility: greater than 10 km
2024/06/20 05:20 EBBR 200520Z 10003KT 060V120 CAVOK 13/11 Q1020 NOSIG
EHGR - Gilze-Rijen Rnla, Netherlands
Distance from station: ΒΑ 47km
Ενημερώθηκε: 20/06/2024 07:25
Συννεφιά
Συννεφιά
 Ανεμος από ΑΒΑ
Ανεμος: ΑΒΑ 9 km/h
Θερμοκρασία: 14°C
Σημείο Δρόσου: 11°C
Υγρασία: 82%
Βαρόμετρο: 1020 hPa
Clouds: Συννεφιά
Visibility: 10 km
Cloud details: Σχεδόν νεφελώδης 5182 m
Συννεφιά 7010 m
2024/06/20 05:25 EHGR 200525Z AUTO 07005KT 020V120 9999 BKN170 OVC230 14/11 Q1020 BLU
 
EBDT - Schaffen, Belgium
Distance from station: ΑΝΑ 54km
Ενημερώθηκε: 20/06/2024 07:25
Αίθριος
Αίθριος
 Ανεμος από Α
Ανεμος: Α 7 km/h
Θερμοκρασία: 14°C
Σημείο Δρόσου: 11°C
Υγρασία: 82%
Βαρόμετρο: 1020 hPa
Clouds: Αίθριος
Visibility: 10 km
2024/06/20 05:25 EBDT 200525Z AUTO 08004KT 9999 NCD 14/11 Q1020 BLU
EHFS - Vlissingen, Netherlands
Distance from station: ΔΒΔ 60km
Ενημερώθηκε: 20/06/2024 07:25
Μερικώς νεφελώδης
Μερικώς νεφελώδης
 Ανεμος από ΒΑ
Ανεμος: ΒΑ 15 km/h
Θερμοκρασία: 13°C
Σημείο Δρόσου: 12°C
Υγρασία: 94%
Βαρόμετρο: 1020 hPa
Clouds: Μερικώς νεφελώδης
Visibility: 10 km
2024/06/20 05:25 EHFS 200525Z AUTO 04008KT 9999 NSC 13/12 Q1020
 
EBBE - Beauvechain (baf, Belgium
Distance from station: ΝΝΑ 64km
Ενημερώθηκε: 20/06/2024 07:25
Σχεδόν νεφελώδης
Σχεδόν νεφελώδης
 Ανεμος από ΑΒΑ
Ανεμος: ΑΒΑ 7 km/h
Θερμοκρασία: 13°C
Σημείο Δρόσου: 12°C
Υγρασία: 94%
Βαρόμετρο: 1019 hPa
Clouds: Σχεδόν νεφελώδης
Visibility: 10 km
Cloud details: Μερικώς νεφελώδης 3658 m
Σχεδόν νεφελώδης 4572 m
2024/06/20 05:25 EBBE 200525Z 06004KT 9999 SCT120 BKN150 13/12 Q1019 BLU BLU
EHEH - Eindhoven Rnlafb, Netherlands
Distance from station: ΑΒΑ 69km
Ενημερώθηκε: 20/06/2024 07:25
Συννεφιά
Συννεφιά
 Ανεμος από ΑΒΑ
Ανεμος: ΑΒΑ 9 km/h
Θερμοκρασία: 14°C
Σημείο Δρόσου: 11°C
Υγρασία: 82%
Βαρόμετρο: 1020 hPa
Clouds: Συννεφιά
Visibility: 10 km
Cloud details: Μερικώς νεφελώδης 5486 m
Μερικώς νεφελώδης 7315 m
Συννεφιά 9144 m
2024/06/20 05:25 EHEH 200525Z AUTO 06005KT 9999 SCT180 SCT240 OVC300 14/11 Q1020 BLU NOSIG
 
EBBL - Kleine-Brogel(Ba, Belgium
Distance from station: Α 74km
Ενημερώθηκε: 20/06/2024 07:34
Σχεδόν νεφελώδης
Σχεδόν νεφελώδης
 Ανεμος από varies
Ανεμος: varies 4 km/h
Θερμοκρασία: 14°C
Σημείο Δρόσου: 11°C
Υγρασία: 82%
Βαρόμετρο: 1020 hPa
Clouds: Σχεδόν νεφελώδης
Visibility: 10 km
Cloud details: Σχεδόν νεφελώδης 9144 m
2024/06/20 05:34 EBBL 200534Z VRB02KT 9999 BKN300 14/11 Q1020 BLU BLU
EHRD - Rotterdam Airpor, Netherlands
Distance from station: Β 75km
Ενημερώθηκε: 20/06/2024 07:25
Μερικώς νεφελώδης
Μερικώς νεφελώδης
 Ανεμος από ΑΒΑ
Ανεμος: ΑΒΑ 11 km/h
Θερμοκρασία: 12°C
Σημείο Δρόσου: 10°C
Υγρασία: 88%
Βαρόμετρο: 1020 hPa
Clouds: Μερικώς νεφελώδης
Visibility: 10 km
2024/06/20 05:25 EHRD 200525Z AUTO 06006KT 030V090 9999 NSC 12/10 Q1020 NOSIG
 
EHSC - Goeree Le Sea, Netherlands
Distance from station: ΒΔ 89km
Ενημερώθηκε: 20/06/2024 07:25

 Ανεμος από ΒΑ
Ανεμος: ΒΑ 26 km/h
Θερμοκρασία: 14°C
Σημείο Δρόσου: 11°C
Υγρασία: 82%
Βαρόμετρο: 1021 hPa
Visibility: 10 km
2024/06/20 05:25 EHSC 200525Z AUTO 05014KT 9999 ///////// 14/11 Q1021 W16/H8
EBCI - Charleroi/Gossel, Belgium
Distance from station: Ν 90km
Ενημερώθηκε: 20/06/2024 07:20
Αίθριος
Αίθριος
 Ανεμος από ΑΒΑ
Ανεμος: ΑΒΑ 15 km/h
Θερμοκρασία: 13°C
Σημείο Δρόσου: 11°C
Υγρασία: 88%
Βαρόμετρο: 1019 hPa
Περίληψη: Αίθριος
Visibility: greater than 10 km
2024/06/20 05:20 EBCI 200520Z 06008KT CAVOK 13/11 Q1019 NOSIG
 
EBCV - Chievres Ab, Belgium
Distance from station: ΝΝΔ 90km
Ενημερώθηκε: 20/06/2024 07:25
Συννεφιά
Συννεφιά
 Ανεμος από ΒΒΑ
Ανεμος: ΒΒΑ 6 km/h
Θερμοκρασία: 14°C
Σημείο Δρόσου: 12°C
Υγρασία: 88%
Βαρόμετρο: 1019 hPa
Clouds: Συννεφιά
Visibility: 10 km
Cloud details: Few Clouds 2438 m
Συννεφιά 3048 m
2024/06/20 05:25 EBCV 200525Z AUTO 03003KT 9999 FEW080/// OVC100/// 14/12 Q1019 BLU
EHVK - Volkel Rnlafb, Netherlands
Distance from station: ΑΒΑ 97km
Ενημερώθηκε: 20/06/2024 07:25
Συννεφιά
Συννεφιά
 Ανεμος από ΑΒΑ
Ανεμος: ΑΒΑ 11 km/h
Θερμοκρασία: 14°C
Σημείο Δρόσου: 11°C
Υγρασία: 82%
Βαρόμετρο: 1020 hPa
Clouds: Συννεφιά
Visibility: 10 km
Cloud details: Few Clouds 7010 m
Συννεφιά 10058 m
2024/06/20 05:25 EHVK 200525Z AUTO 06006KT 020V130 9999 FEW230 OVC330 14/11 Q1020 BLU
 
EBLG - Bierset/Liege (c, Belgium
Distance from station: ΝΑ 102km
Ενημερώθηκε: 20/06/2024 07:20
Αίθριος
Αίθριος
 Ανεμος από ΒΒΑ
Ανεμος: ΒΒΑ 7 km/h
Θερμοκρασία: 14°C
Σημείο Δρόσου: 12°C
Υγρασία: 88%
Βαρόμετρο: 1019 hPa
Περίληψη: Αίθριος
Visibility: greater than 10 km
2024/06/20 05:20 EBLG 200520Z 02004KT CAVOK 14/12 Q1019 NOSIG
EHBK - Zuid-Limburg/Bee, Netherlands
Distance from station: ΑΝΑ 102km
Ενημερώθηκε: 20/06/2024 07:25
Μερικώς νεφελώδης
Μερικώς νεφελώδης
 Ανεμος από Α
Ανεμος: Α 11 km/h
Θερμοκρασία: 14°C
Σημείο Δρόσου: 11°C
Υγρασία: 82%
Βαρόμετρο: 1019 hPa
Clouds: Μερικώς νεφελώδης
Visibility: 10 km
2024/06/20 05:25 EHBK 200525Z AUTO 09006KT 060V120 9999 NSC 14/11 Q1019 NOSIG
 
EBOS - Oostende Airport, Belgium
Distance from station: Δ 108km
Ενημερώθηκε: 20/06/2024 07:20
Αίθριος
Αίθριος
 Ανεμος από ΒΑ
Ανεμος: ΒΑ 9 km/h
Θερμοκρασία: 14°C
Σημείο Δρόσου: 12°C
Υγρασία: 88%
Βαρόμετρο: 1021 hPa
Περίληψη: Αίθριος
Visibility: greater than 10 km
2024/06/20 05:20 EBOS 200520Z 05005KT CAVOK 14/12 Q1021 NOSIG
EHSA - Euro Platform, Netherlands
Distance from station: ΒΔ 112km
Ενημερώθηκε: 20/06/2024 07:25

 Ανεμος από ΒΑ
Ανεμος: ΒΑ 20 km/h
Θερμοκρασία: 15°C
Σημείο Δρόσου: 11°C
Υγρασία: 77%
Βαρόμετρο: 1021 hPa
Visibility: 10 km
2024/06/20 05:25 EHSA 200525Z AUTO 05011KT 9999 ///////// 15/11 Q1021 W15/H9
 
EHAM - Amsterdam/Schiph, Netherlands
Distance from station: ΒΒΑ 118km
Ενημερώθηκε: 20/06/2024 07:25
Αίθριος
Αίθριος
 Ανεμος από ΒΑ
Ανεμος: ΒΑ 15 km/h
Θερμοκρασία: 13°C
Σημείο Δρόσου: 11°C
Υγρασία: 88%
Βαρόμετρο: 1021 hPa
Περίληψη: Αίθριος
Visibility: greater than 10 km
2024/06/20 05:25 EHAM 200525Z 05008KT 010V160 CAVOK 13/11 Q1021 NOSIG
ETNG - Geilenkirchen(Na, Germany
Distance from station: ΑΝΑ 118km
Ενημερώθηκε: 20/06/2024 07:21
Αίθριος
Αίθριος
 Ανεμος από Α
Ανεμος: Α 13 km/h
Θερμοκρασία: 14°C
Σημείο Δρόσου: 12°C
Υγρασία: 88%
Βαρόμετρο: 1020 hPa
Περίληψη: Αίθριος
Visibility: greater than 10 km
2024/06/20 05:21 ETNG 200521Z 10007KT CAVOK 14/12 Q1020 NOSIG